createdAt,value
2022-12-25T00:02:02.483Z,971.53
2022-12-25T00:17:04.420Z,971.52
2022-12-25T00:32:06.389Z,971.19
2022-12-25T00:47:08.405Z,971.23
2022-12-25T01:02:10.521Z,970.98
2022-12-25T01:17:12.614Z,971.23
2022-12-25T01:32:14.593Z,971.08
2022-12-25T01:47:16.563Z,971.02
2022-12-25T02:02:18.627Z,970.95
2022-12-25T02:17:20.714Z,970.97
2022-12-25T02:32:22.735Z,970.97
2022-12-25T02:47:24.672Z,970.96
2022-12-25T03:02:26.618Z,971.05
2022-12-25T03:17:28.571Z,971.21
2022-12-25T03:32:30.524Z,971.36
2022-12-25T03:47:32.456Z,971.33
2022-12-25T04:02:34.597Z,971.45
2022-12-25T04:17:36.630Z,971.52
2022-12-25T04:32:38.613Z,970.84
2022-12-25T04:47:40.521Z,971.07
2022-12-25T05:02:42.650Z,971.24
2022-12-25T05:17:44.781Z,971.59
2022-12-25T05:32:46.670Z,971.6
2022-12-25T05:47:48.583Z,972.17
2022-12-25T06:02:50.707Z,972.19
2022-12-25T06:17:52.819Z,972.23
2022-12-25T06:32:54.740Z,972.2
2022-12-25T06:47:56.881Z,972.73
2022-12-25T07:02:58.974Z,972.93
2022-12-25T07:18:01.326Z,973.34
2022-12-25T07:33:03.266Z,973.64
2022-12-25T07:48:06.299Z,973.93
2022-12-25T08:03:10.410Z,974.24
2022-12-25T08:18:12.476Z,974.27
2022-12-25T08:33:14.382Z,974.57
2022-12-25T08:48:16.354Z,974.66
2022-12-25T09:03:18.451Z,975.01
2022-12-25T09:18:20.485Z,975.21
2022-12-25T09:33:22.463Z,975.45
2022-12-25T09:48:24.346Z,975.59
2022-12-25T10:03:26.428Z,975.4
2022-12-25T10:18:28.478Z,975.61
2022-12-25T10:33:30.526Z,976.03
2022-12-25T10:48:32.428Z,976.29
2022-12-25T11:03:34.628Z,976.6
2022-12-25T11:18:36.648Z,976.79
2022-12-25T11:33:38.577Z,976.89
2022-12-25T11:48:40.520Z,977.37
2022-12-25T12:03:42.574Z,977.34
2022-12-25T12:18:50.049Z,977.14
2022-12-25T12:33:52.629Z,976.82
2022-12-25T12:48:54.606Z,976.77
2022-12-25T13:03:56.443Z,976.88
2022-12-25T13:18:58.296Z,976.75
2022-12-25T13:34:00.156Z,976.87
2022-12-25T13:49:02.008Z,976.92
2022-12-25T14:04:03.882Z,976.91
2022-12-25T14:19:05.717Z,976.57
2022-12-25T14:34:07.531Z,976.26
2022-12-25T14:49:09.381Z,976.32
2022-12-25T15:04:11.291Z,976.35
2022-12-25T15:19:13.153Z,976.84
2022-12-25T15:34:15.012Z,977.17
2022-12-25T15:49:17.168Z,977.38
2022-12-25T16:04:19.076Z,977.28
2022-12-25T16:19:20.955Z,977.23
2022-12-25T16:34:22.800Z,977.52
2022-12-25T16:49:24.863Z,977.86
2022-12-25T17:04:26.942Z,978.19
2022-12-25T17:19:28.885Z,978.26
2022-12-25T17:34:30.879Z,978.22
2022-12-25T17:49:32.826Z,978.42
2022-12-25T18:04:34.739Z,978.39
2022-12-25T18:19:36.662Z,978.17
2022-12-25T18:34:38.669Z,978.35
2022-12-25T18:49:40.569Z,978.2
2022-12-25T19:04:42.471Z,978.19
2022-12-25T19:19:44.363Z,978.26
2022-12-25T19:34:46.295Z,978.2
2022-12-25T19:49:52.844Z,978.26
2022-12-25T20:04:55.252Z,978.1
2022-12-25T20:19:57.222Z,977.77
2022-12-25T20:34:59.105Z,977.36
2022-12-25T20:50:01.133Z,977.37
2022-12-25T21:05:03.018Z,977.69
2022-12-25T21:20:05.060Z,977.48
2022-12-25T21:35:07.003Z,977.23
2022-12-25T21:50:08.944Z,977.49
2022-12-25T22:05:10.858Z,977.75
2022-12-25T22:20:12.820Z,977.5
2022-12-25T22:35:14.790Z,977.51
2022-12-25T22:50:16.760Z,977.58
2022-12-25T23:05:18.765Z,977.67
2022-12-25T23:20:20.695Z,977.63
2022-12-25T23:35:22.594Z,977.59
2022-12-25T23:50:24.528Z,977.44
